메인 페이지
METAR-TAF:

METAR-TAF

공항 :

노이바이 국제공항

하노이, 베트남

위도: 21-01N, 경도: 105-48E, 고도: 6m

현재 날씨관측

예보는 37분 전, 04:30시(UTC)에 발표되었습니다.
동북동3kt북북동풍과 동남동풍을 오가는
온도 28°C
습도 70%
기압 1013 hPa
시정 10km 이상
고도 1500ft 상공 구름 보통
고도 2300ft 상공 구름 많음

METAR: VVNB 150430Z 06003KT 020V110 9999 SCT015 BKN023 28/22 Q1013 NOSIG

시각: 12:07 (05:07 UTC)

예보

예보는 6 시간 7분 전, 23:00시(UTC)에 발표되었습니다.
예보 대상 시간: 15일 00시부터 15일 24시까지 (UTC)
7kt
시정: 6000m
고도 2000ft 상공 구름 보통
일시적
15일 00시부터 15일 05시까지 (UTC)
시정: 4000m
고도 800ft 상공 구름 조금
고도 1300ft 상공 구름 보통
고도 4000ft 상공 구름 많음
약한비, 박무
전환 중
15일 17시부터 15일 18시까지 (UTC)
시정: 4000m
박무

TAF: VVNB 142300Z 1500/1524 08007KT 6000 SCT020 TEMPO 1500/1505 4000 -RA BR FEW008 SCT013 BKN040 BECMG 1517/1518 4000 BR

4,000개 이상의 공항 관측 자료 및 예보 (METAR 및 TAF 보고).

지도상에서 검색 가능한 기상관측소가 노란 점과 빨간 점으로 표시되어 있습니다.

기상관측소 명을 보려면 표시 위로 마우스를 이동하세요.

날씨 관측과 예보를 보려면 클릭하세요.

지도 변경 : 확대하려면 엑스 표시가 있는 녹색 버튼, 축소하려면 빼기 표시가 있는 녹색 버튼, 다음 페이지의 지도를 보려면 녹색 화살표를 클릭하세요.


METAR-TAF: